createdAt,value
2022-12-05T00:01:24.527Z,3.16
2022-12-05T00:03:53.356Z,3.34
2022-12-05T00:06:20.901Z,3.18
2022-12-05T00:08:48.408Z,3.26
2022-12-05T00:11:17.710Z,3.10
2022-12-05T00:13:44.853Z,3.16
2022-12-05T00:16:13.968Z,3.33
2022-12-05T00:18:40.989Z,3.04
2022-12-05T00:21:22.156Z,3.00
2022-12-05T00:23:49.738Z,3.12
2022-12-05T00:26:16.728Z,3.04
2022-12-05T00:28:44.587Z,3.27
2022-12-05T00:31:20.102Z,3.17
2022-12-05T00:33:47.109Z,3.03
2022-12-05T00:36:25.277Z,3.21
2022-12-05T00:39:06.166Z,3.16
2022-12-05T00:41:32.885Z,3.40
2022-12-05T00:44:03.102Z,3.19
2022-12-05T00:46:54.624Z,3.47
2022-12-05T00:49:29.681Z,3.16
2022-12-05T00:51:56.430Z,3.24
2022-12-05T00:54:22.929Z,3.16
2022-12-05T00:56:52.237Z,3.38
2022-12-05T00:59:22.295Z,3.38
2022-12-05T01:01:50.808Z,3.35
2022-12-05T01:04:20.468Z,3.33
2022-12-05T01:06:47.259Z,3.28
2022-12-05T01:09:16.365Z,3.20
2022-12-05T01:11:43.979Z,3.27
2022-12-05T01:14:12.437Z,3.27
2022-12-05T01:17:06.929Z,3.51
2022-12-05T01:19:33.584Z,3.42
2022-12-05T01:22:02.821Z,3.44
2022-12-05T01:24:30.552Z,3.34
2022-12-05T01:26:59.077Z,3.53
2022-12-05T01:29:29.489Z,3.52
2022-12-05T01:31:56.449Z,3.52
2022-12-05T01:34:26.040Z,3.39
2022-12-05T01:36:52.824Z,3.41
2022-12-05T01:39:19.512Z,3.48
2022-12-05T01:41:52.936Z,3.29
2022-12-05T01:44:22.396Z,3.49
2022-12-05T01:46:52.147Z,3.36
2022-12-05T01:49:48.561Z,3.35
2022-12-05T01:52:25.372Z,3.39
2022-12-05T01:55:06.032Z,3.47
2022-12-05T01:57:33.378Z,3.66
2022-12-05T02:00:12.248Z,3.58
2022-12-05T02:03:06.033Z,3.75
2022-12-05T02:05:36.830Z,3.84
2022-12-05T02:08:07.845Z,3.81
2022-12-05T02:10:42.633Z,3.74
2022-12-05T02:14:24.247Z,3.77
2022-12-05T02:17:13.975Z,3.53
2022-12-05T02:20:30.730Z,3.43
2022-12-05T02:23:19.703Z,3.72
2022-12-05T02:26:16.453Z,3.63
2022-12-05T02:29:08.827Z,3.70
2022-12-05T02:31:51.519Z,3.80
2022-12-05T02:34:58.790Z,3.73
2022-12-05T02:37:56.303Z,3.66
2022-12-05T02:40:53.426Z,3.51
2022-12-05T02:44:24.598Z,3.62
2022-12-05T02:50:00.532Z,3.77
2022-12-05T02:53:00.528Z,3.84
2022-12-05T02:58:33.728Z,4.06
2022-12-05T03:01:01.454Z,4.09
2022-12-05T03:03:29.032Z,4.15
2022-12-05T03:06:34.690Z,4.13
2022-12-05T03:09:06.687Z,3.94
2022-12-05T03:12:26.778Z,4.02
2022-12-05T03:15:18.349Z,3.89
2022-12-05T03:17:53.076Z,3.79
2022-12-05T03:20:29.407Z,3.90
2022-12-05T03:23:20.911Z,3.86
2022-12-05T03:26:34.651Z,3.95
2022-12-05T03:29:12.967Z,3.86
2022-12-05T03:31:52.899Z,3.58
2022-12-05T03:34:45.728Z,3.64
2022-12-05T03:37:41.271Z,3.67
2022-12-05T03:40:26.683Z,3.83
2022-12-05T03:43:14.591Z,3.92
2022-12-05T03:46:13.329Z,4.01
2022-12-05T04:59:02.056Z,3.68
2022-12-05T05:02:03.011Z,3.68
2022-12-05T05:07:36.113Z,3.94
2022-12-05T05:48:25.004Z,3.99
2022-12-05T07:48:05.053Z,4.24
2022-12-05T07:50:31.697Z,3.95
2022-12-05T07:52:58.248Z,4.05
2022-12-05T07:55:24.873Z,4.20
2022-12-05T07:57:51.490Z,4.19
2022-12-05T08:00:18.729Z,4.23
2022-12-05T08:02:45.367Z,4.18
2022-12-05T08:05:12.056Z,4.13
2022-12-05T08:07:38.680Z,4.19
2022-12-05T08:10:06.087Z,4.13
2022-12-05T08:12:32.677Z,4.19
2022-12-05T08:15:17.925Z,4.25
2022-12-05T08:18:09.350Z,4.13
2022-12-05T08:20:35.915Z,4.16
2022-12-05T08:23:02.465Z,4.04
2022-12-05T08:25:29.121Z,4.03
2022-12-05T08:27:55.714Z,3.82
2022-12-05T08:30:22.931Z,3.91
2022-12-05T08:32:49.523Z,3.99
2022-12-05T08:35:19.351Z,3.93
2022-12-05T08:37:48.063Z,3.95
2022-12-05T08:40:14.697Z,3.84
2022-12-05T08:42:41.302Z,3.85
2022-12-05T08:45:08.473Z,3.92
2022-12-05T08:47:35.234Z,3.86
2022-12-05T08:50:05.580Z,3.96
2022-12-05T08:52:32.187Z,3.70
2022-12-05T08:54:59.150Z,3.64
2022-12-05T08:57:32.365Z,3.87
2022-12-05T08:59:58.898Z,3.73
2022-12-05T09:02:25.595Z,3.87
2022-12-05T09:04:56.175Z,4.02
2022-12-05T09:10:30.782Z,3.90
2022-12-05T09:12:57.385Z,3.91
2022-12-05T09:15:25.810Z,3.80
2022-12-05T09:17:52.437Z,3.80
2022-12-05T09:20:44.476Z,3.83
2022-12-05T09:23:16.142Z,3.90
2022-12-05T09:26:33.376Z,3.76
2022-12-05T09:29:01.660Z,3.90
2022-12-05T09:31:43.025Z,3.59
2022-12-05T09:34:10.535Z,3.53
2022-12-05T09:36:37.726Z,3.58
2022-12-05T09:39:06.329Z,3.62
2022-12-05T09:42:08.909Z,3.20
2022-12-05T09:44:56.633Z,3.23
2022-12-05T09:47:26.087Z,3.32
2022-12-05T09:50:21.078Z,3.14
2022-12-05T09:52:59.097Z,2.91
2022-12-05T09:55:41.164Z,3.01
2022-12-05T09:58:21.276Z,3.00
2022-12-05T10:00:57.515Z,2.95
2022-12-05T10:03:43.027Z,2.98
2022-12-05T10:06:29.008Z,3.04
2022-12-05T10:09:19.820Z,3.00
2022-12-05T10:12:02.872Z,2.86
2022-12-05T10:15:08.572Z,2.88
2022-12-05T10:17:39.834Z,2.93
2022-12-05T10:20:19.151Z,2.94
2022-12-05T10:23:02.054Z,2.93
2022-12-05T10:25:31.520Z,2.96
2022-12-05T10:28:12.907Z,3.00
2022-12-05T10:30:42.374Z,2.96
2022-12-05T10:33:19.110Z,2.83
2022-12-05T10:35:45.623Z,2.96
2022-12-05T10:38:29.103Z,2.93
2022-12-05T10:44:09.770Z,2.98
2022-12-05T10:46:39.327Z,3.02
2022-12-05T10:49:20.367Z,3.01
2022-12-05T10:51:50.374Z,2.95
2022-12-05T10:54:53.179Z,2.88
2022-12-05T10:57:26.544Z,2.98
2022-12-05T10:59:57.746Z,3.08
2022-12-05T11:05:14.221Z,3.04
2022-12-05T11:07:49.429Z,3.04
2022-12-05T11:10:31.096Z,2.95
2022-12-05T11:13:25.405Z,3.05
2022-12-05T11:15:55.569Z,3.02
2022-12-05T11:18:25.446Z,2.92
2022-12-05T11:20:52.264Z,2.56
2022-12-05T11:23:30.651Z,2.92
2022-12-05T11:25:58.665Z,2.84
2022-12-05T11:28:33.352Z,2.92
2022-12-05T11:31:07.267Z,2.82
2022-12-05T11:33:36.058Z,2.87
2022-12-05T11:36:14.439Z,2.85
2022-12-05T11:38:41.912Z,3.02
2022-12-05T11:41:34.100Z,3.03
2022-12-05T11:44:19.264Z,3.10
2022-12-05T11:47:00.282Z,3.18
2022-12-05T11:49:48.254Z,3.06
2022-12-05T11:52:29.306Z,3.10
2022-12-05T11:55:16.544Z,2.69
2022-12-05T11:57:47.417Z,2.60
2022-12-05T12:01:12.330Z,2.65
2022-12-05T12:03:57.700Z,2.67
2022-12-05T12:06:29.425Z,2.96
2022-12-05T12:09:05.939Z,3.00
2022-12-05T12:11:58.411Z,2.67
2022-12-05T12:15:02.020Z,2.66
2022-12-05T12:17:43.563Z,2.46
2022-12-05T12:20:30.389Z,2.62
2022-12-05T12:23:18.790Z,2.45
2022-12-05T12:26:04.041Z,2.53
2022-12-05T12:29:16.562Z,2.49
2022-12-05T12:32:06.514Z,2.72
2022-12-05T12:35:02.013Z,2.82
2022-12-05T12:37:49.978Z,2.85
2022-12-05T12:40:19.291Z,2.84
2022-12-05T12:43:30.871Z,2.72
2022-12-05T12:46:13.536Z,2.87
2022-12-05T12:48:49.006Z,2.97
2022-12-05T12:51:44.906Z,3.04
2022-12-05T12:55:02.968Z,2.79
2022-12-05T12:57:55.073Z,3.05
2022-12-05T13:00:30.501Z,3.00
2022-12-05T13:03:30.381Z,3.02
2022-12-05T13:06:17.863Z,2.91
2022-12-05T13:09:19.792Z,2.86
2022-12-05T13:12:24.358Z,2.95
2022-12-05T13:15:02.818Z,2.82
2022-12-05T13:17:40.464Z,2.57
2022-12-05T13:20:16.389Z,2.77
2022-12-05T13:22:49.311Z,2.77
2022-12-05T13:25:19.128Z,2.80
2022-12-05T13:27:59.064Z,2.87
2022-12-05T13:30:28.735Z,2.77
2022-12-05T13:32:57.859Z,2.74
2022-12-05T13:35:51.539Z,2.78
2022-12-05T13:38:59.994Z,2.70
2022-12-05T13:42:04.318Z,2.70
2022-12-05T13:44:41.458Z,2.62
2022-12-05T13:47:39.335Z,2.56
2022-12-05T13:50:34.322Z,2.48
2022-12-05T13:53:05.247Z,2.83
2022-12-05T13:55:54.470Z,2.86
2022-12-05T13:58:24.154Z,2.92
2022-12-05T14:01:13.587Z,2.90
2022-12-05T14:03:40.148Z,3.03
2022-12-05T14:06:06.949Z,3.02
2022-12-05T14:08:39.607Z,3.10
2022-12-05T14:11:19.175Z,3.07
2022-12-05T14:13:47.736Z,3.04
2022-12-05T14:16:34.252Z,3.12
2022-12-05T14:19:37.601Z,3.07
2022-12-05T14:22:48.985Z,3.18
2022-12-05T14:25:49.001Z,3.15
2022-12-05T14:29:17.530Z,3.15
2022-12-05T14:32:32.485Z,3.11
2022-12-05T14:35:32.485Z,3.19
2022-12-05T14:38:06.620Z,3.24
2022-12-05T14:40:40.907Z,3.04
2022-12-05T14:43:29.062Z,3.10
2022-12-05T14:46:08.534Z,3.19
2022-12-05T14:48:45.728Z,3.15
2022-12-05T14:51:32.630Z,3.06
2022-12-05T14:54:18.940Z,3.20
2022-12-05T14:57:02.029Z,3.10
2022-12-05T14:59:40.298Z,3.07
2022-12-05T15:02:36.304Z,3.12
2022-12-05T15:05:31.282Z,3.18
2022-12-05T15:08:01.600Z,3.08
2022-12-05T15:10:52.623Z,3.12
2022-12-05T15:13:24.704Z,2.96
2022-12-05T15:16:00.074Z,2.87
2022-12-05T15:18:57.792Z,2.90
2022-12-05T15:21:32.299Z,2.99
2022-12-05T15:24:11.972Z,2.98
2022-12-05T15:26:47.343Z,2.96
2022-12-05T15:29:20.823Z,2.90
2022-12-05T15:31:48.685Z,2.83
2022-12-05T15:34:44.929Z,2.96
2022-12-05T15:37:26.251Z,3.02
2022-12-05T15:40:10.705Z,2.89
2022-12-05T15:42:44.187Z,2.73
2022-12-05T15:45:30.266Z,2.76
2022-12-05T15:48:12.680Z,2.85
2022-12-05T15:53:59.367Z,2.90
2022-12-05T15:56:43.206Z,2.86
2022-12-05T15:59:17.285Z,2.94
2022-12-05T16:02:04.150Z,2.91
2022-12-05T16:05:10.906Z,2.76
2022-12-05T16:07:37.493Z,2.77
2022-12-05T16:10:05.360Z,2.78
2022-12-05T16:12:39.314Z,2.74
2022-12-05T16:15:31.074Z,2.64
2022-12-05T16:18:03.606Z,2.87
2022-12-05T16:20:40.318Z,2.79
2022-12-05T16:23:25.629Z,2.84
2022-12-05T16:25:52.284Z,2.78
2022-12-05T16:28:21.245Z,2.77
2022-12-05T16:31:02.719Z,2.91
2022-12-05T16:33:30.657Z,2.84
2022-12-05T16:36:11.563Z,2.90
2022-12-05T16:38:47.780Z,2.85
2022-12-05T16:41:17.040Z,2.68
2022-12-05T16:43:47.453Z,2.61
2022-12-05T16:46:14.463Z,2.75
2022-12-05T16:48:45.282Z,2.90
2022-12-05T16:51:28.586Z,2.82
2022-12-05T16:54:20.073Z,2.87
2022-12-05T16:56:49.101Z,2.84
2022-12-05T16:59:42.289Z,2.85
2022-12-05T17:02:40.622Z,2.94
2022-12-05T17:05:14.177Z,2.82
2022-12-05T17:07:40.845Z,2.95
2022-12-05T17:10:08.165Z,2.97
2022-12-05T17:12:35.092Z,2.83
2022-12-05T17:15:02.075Z,2.83
2022-12-05T17:17:28.927Z,2.82
2022-12-05T17:19:55.502Z,2.91
2022-12-05T17:22:27.024Z,2.93
2022-12-05T17:27:38.011Z,3.05
2022-12-05T17:30:29.702Z,2.89
2022-12-05T17:37:13.525Z,2.76
2022-12-05T17:40:31.088Z,2.80
2022-12-05T17:46:38.127Z,2.64
2022-12-05T17:49:04.718Z,2.69
2022-12-05T17:51:52.568Z,2.65
2022-12-05T17:54:23.962Z,2.77
2022-12-05T17:56:50.528Z,2.77
2022-12-05T17:59:17.090Z,2.63
2022-12-05T18:01:43.616Z,2.67
2022-12-05T18:07:21.149Z,2.66
2022-12-05T18:09:47.746Z,2.63
2022-12-05T18:12:17.618Z,2.67
2022-12-05T18:15:10.246Z,2.65
2022-12-05T18:17:36.900Z,2.56
2022-12-05T18:20:04.839Z,2.72
2022-12-05T18:22:34.734Z,2.82
2022-12-05T18:25:04.243Z,2.87
2022-12-05T18:27:31.727Z,2.90
2022-12-05T18:29:58.344Z,2.82
2022-12-05T18:32:25.517Z,2.68
2022-12-05T18:34:55.656Z,2.57
2022-12-05T18:37:55.335Z,2.60
2022-12-05T18:40:26.831Z,2.55
2022-12-05T18:43:06.088Z,2.78
2022-12-05T18:48:38.204Z,2.32
2022-12-05T18:51:34.244Z,2.17
2022-12-05T18:54:00.782Z,2.41
2022-12-05T18:56:30.979Z,2.59
2022-12-05T18:59:22.994Z,2.36
2022-12-05T19:01:50.484Z,2.53
2022-12-05T19:04:19.896Z,2.69
2022-12-05T19:06:52.934Z,2.51
2022-12-05T19:10:10.407Z,2.60
2022-12-05T19:12:37.739Z,2.42
2022-12-05T19:15:09.245Z,2.64
2022-12-05T19:17:39.116Z,2.74
2022-12-05T19:20:48.917Z,2.75
2022-12-05T19:23:41.321Z,2.73
2022-12-05T19:26:14.281Z,2.68
2022-12-05T19:28:40.959Z,2.80
2022-12-05T19:31:12.591Z,2.88
2022-12-05T19:33:41.629Z,2.86
2022-12-05T19:36:13.748Z,2.87
2022-12-05T19:38:43.323Z,2.87
2022-12-05T19:41:12.857Z,2.80
2022-12-05T19:43:41.499Z,2.75
2022-12-05T19:46:12.018Z,2.87
2022-12-05T19:49:28.814Z,2.85
2022-12-05T19:51:55.432Z,2.79
2022-12-05T19:54:23.999Z,2.76
2022-12-05T19:56:50.725Z,2.84
2022-12-05T19:59:17.386Z,2.84
2022-12-05T20:01:44.755Z,2.80
2022-12-05T20:04:14.568Z,2.92
2022-12-05T20:06:57.733Z,2.78
2022-12-05T20:09:24.825Z,2.87
2022-12-05T20:11:55.522Z,2.89
2022-12-05T20:14:38.831Z,2.94
2022-12-05T20:17:05.804Z,2.95
2022-12-05T20:19:32.396Z,2.91
2022-12-05T20:21:59.292Z,2.66
2022-12-05T20:24:25.810Z,2.85
2022-12-05T20:26:53.011Z,2.81
2022-12-05T20:32:48.132Z,2.82
2022-12-05T20:35:37.331Z,2.79
2022-12-05T20:38:56.944Z,2.74
2022-12-05T20:41:25.795Z,2.81
2022-12-05T20:44:15.887Z,2.74
2022-12-05T20:47:07.796Z,2.81
2022-12-05T20:50:09.172Z,2.80
2022-12-05T20:52:35.769Z,2.91
2022-12-05T20:55:02.438Z,2.92
2022-12-05T20:57:29.029Z,2.81
2022-12-05T20:59:55.532Z,2.84
2022-12-05T21:02:48.930Z,2.81
2022-12-05T21:05:15.620Z,2.75
2022-12-05T21:07:42.309Z,2.83
2022-12-05T21:13:35.578Z,2.93
2022-12-05T21:16:06.915Z,2.91
2022-12-05T21:18:34.432Z,2.93
2022-12-05T21:21:04.123Z,2.87
2022-12-05T21:24:20.512Z,2.94
2022-12-05T21:26:49.495Z,2.84
2022-12-05T21:33:07.312Z,2.82
2022-12-05T22:11:33.112Z,2.82
2022-12-05T22:14:12.225Z,2.54
2022-12-05T22:16:49.683Z,2.56
2022-12-05T22:22:39.085Z,2.95
2022-12-05T22:36:17.375Z,2.61
2022-12-05T22:39:11.655Z,2.70
2022-12-05T22:41:57.880Z,2.78
2022-12-05T22:55:32.009Z,2.81
2022-12-05T23:00:52.465Z,2.66
2022-12-05T23:03:47.904Z,2.77
2022-12-05T23:06:33.677Z,2.78
2022-12-05T23:09:14.995Z,2.61
2022-12-05T23:12:02.807Z,2.55
2022-12-05T23:14:35.497Z,2.64
2022-12-05T23:17:23.876Z,2.67
2022-12-05T23:20:08.432Z,2.52
2022-12-05T23:23:03.193Z,2.77
2022-12-05T23:25:52.563Z,2.61
2022-12-05T23:28:21.523Z,2.81
2022-12-05T23:30:57.620Z,2.82
2022-12-05T23:33:31.328Z,2.74
2022-12-05T23:36:08.254Z,2.71
2022-12-05T23:39:02.351Z,2.71
2022-12-05T23:41:40.562Z,2.78
2022-12-05T23:44:13.367Z,2.74
2022-12-05T23:49:42.149Z,2.69
2022-12-05T23:55:06.579Z,2.63
